Time;durP1;ratioP1;P1;durP2;ratioP2;P2;SDS_P1;SDS_P2;PMS_P1;PMS_P2;Temp;Humidity;BMP_temperature;BMP_pressure;BME280_temperature;BME280_humidity;BME280_pressure;Samples;Min_cycle;Max_cycle;Signal;HPM_P1;HPM_P2
2022/07/24 00:01:12;;;;;;;4.95;4.20;;;;;;;17.31;65.64;100562.45;1685178;84;21209;-56
2022/07/24 00:04:19;;;;;;;4.65;4.25;;;;;;;17.30;65.73;100569.90;1667756;84;21352;-56
2022/07/24 00:07:27;;;;;;;4.70;4.30;;;;;;;17.28;65.79;100570.64;1685075;85;21232;-56
2022/07/24 00:10:34;;;;;;;4.90;4.40;;;;;;;17.27;65.90;100569.47;1685278;84;21271;-56
2022/07/24 00:13:39;;;;;;;8.38;4.78;;;;;;;17.26;66.00;100574.70;1685146;84;21252;-55
2022/07/24 00:16:45;;;;;;;7.42;4.22;;;;;;;17.23;66.08;100582.91;1685202;84;21217;-54
2022/07/24 00:19:52;;;;;;;4.80;4.30;;;;;;;17.20;66.08;100581.09;1685406;84;21224;-54
2022/07/24 00:23:01;;;;;;;6.95;4.53;;;;;;;17.14;66.13;100576.42;1685216;84;21232;-56
2022/07/24 00:26:08;;;;;;;5.17;4.40;;;;;;;17.10;66.13;100582.05;1685232;85;21220;-55
2022/07/24 00:29:17;;;;;;;7.58;4.40;;;;;;;17.05;66.11;100577.67;1685549;84;21232;-57
2022/07/24 00:32:24;;;;;;;6.37;4.72;;;;;;;16.99;66.08;100579.39;1684179;84;21263;-56
2022/07/24 00:35:31;;;;;;;5.53;4.60;;;;;;;16.96;66.15;100587.26;1685034;84;21220;-56
2022/07/24 00:38:36;;;;;;;5.72;4.62;;;;;;;16.91;66.29;100580.98;1667646;84;21809;-56
2022/07/24 00:41:42;;;;;;;6.78;4.65;;;;;;;16.90;66.47;100579.81;1685099;84;21236;-55
2022/07/24 00:44:49;;;;;;;6.22;4.92;;;;;;;16.89;66.63;100573.95;1691914;85;21500;-54
2022/07/24 00:47:57;;;;;;;6.42;4.80;;;;;;;16.87;66.67;100570.56;1693669;84;21232;-55
2022/07/24 00:51:03;;;;;;;5.78;5.10;;;;;;;16.82;66.57;100573.11;1686386;84;21325;-56
2022/07/24 00:54:14;;;;;;;5.58;5.05;;;;;;;16.76;66.52;100583.08;1686073;84;21256;-55
2022/07/24 00:57:20;;;;;;;8.35;4.83;;;;;;;16.72;66.54;100587.87;1686222;84;21323;-55
2022/07/24 01:00:27;;;;;;;6.62;4.75;;;;;;;16.69;66.70;100581.38;1684868;84;21244;-55
2022/07/24 01:03:34;;;;;;;5.62;4.85;;;;;;;16.67;66.86;100582.97;1684714;85;21325;-55
2022/07/24 01:06:39;;;;;;;10.13;5.25;;;;;;;16.65;67.01;100583.70;1684672;85;21287;-55
2022/07/24 01:09:46;;;;;;;8.13;4.92;;;;;;;16.64;67.12;100575.63;1684697;85;21213;-55
2022/07/24 01:12:52;;;;;;;8.45;5.53;;;;;;;16.63;67.16;100584.99;1663423;84;21218;-56
2022/07/24 01:15:58;;;;;;;7.58;5.08;;;;;;;16.60;67.26;100586.80;1685330;84;21180;-56
2022/07/24 01:19:05;;;;;;;7.35;5.05;;;;;;;16.57;67.38;100578.38;1684768;85;21234;-54
2022/07/24 01:22:12;;;;;;;8.03;4.87;;;;;;;16.56;67.50;100584.98;1684638;85;21241;-54
2022/07/24 01:25:18;;;;;;;5.75;5.25;;;;;;;16.55;67.59;100578.27;1686673;84;21220;-54
2022/07/24 01:28:26;;;;;;;8.20;5.12;;;;;;;16.54;67.66;100578.80;1686926;83;21264;-55
2022/07/24 01:31:33;;;;;;;8.90;5.35;;;;;;;16.53;67.66;100573.48;1686457;84;21236;-55
2022/07/24 01:34:40;;;;;;;5.95;5.17;;;;;;;16.48;67.57;100570.48;1684299;85;21213;-56
2022/07/24 01:37:51;;;;;;;7.10;4.87;;;;;;;16.45;67.55;100570.39;1684170;85;21260;-56
2022/07/24 01:40:58;;;;;;;5.60;5.10;;;;;;;16.44;67.69;100576.44;1684246;85;21896;-56
2022/07/24 01:44:05;;;;;;;5.83;5.05;;;;;;;16.40;67.73;100572.37;1684185;85;21213;-56
2022/07/24 01:47:11;;;;;;;8.70;4.72;;;;;;;16.38;67.70;100571.72;1684699;85;21308;-55
2022/07/24 01:50:19;;;;;;;8.35;5.47;;;;;;;16.37;67.75;100569.16;1684619;84;21579;-56
2022/07/24 01:53:26;;;;;;;8.30;5.83;;;;;;;16.36;67.86;100566.09;1684614;84;21299;-56
2022/07/24 01:56:32;;;;;;;6.67;5.58;;;;;;;16.34;67.92;100566.30;1683914;84;21232;-56
2022/07/24 01:59:39;;;;;;;8.58;6.20;;;;;;;16.36;68.09;100574.38;1684567;85;21240;-56
2022/07/24 02:02:48;;;;;;;7.15;6.33;;;;;;;16.37;68.24;100572.79;1649872;82;21208;-56
2022/07/24 02:05:54;;;;;;;7.35;6.00;;;;;;;16.37;68.35;100571.41;1676160;84;21212;-56
2022/07/24 02:09:00;;;;;;;8.23;5.20;;;;;;;16.39;68.43;100577.55;1676795;84;21212;-57
2022/07/24 02:12:08;;;;;;;9.13;5.95;;;;;;;16.39;68.44;100574.79;1676740;84;21228;-56
2022/07/24 02:15:17;;;;;;;8.93;5.97;;;;;;;16.38;68.49;100571.72;1693622;85;21212;-56
2022/07/24 02:18:25;;;;;;;7.00;5.65;;;;;;;16.37;68.54;100570.03;1678245;83;21252;-57
2022/07/24 02:21:31;;;;;;;9.55;5.42;;;;;;;16.38;68.63;100570.86;1693802;83;21283;-56
2022/07/24 02:24:36;;;;;;;6.85;5.83;;;;;;;16.38;68.70;100572.23;1668794;85;21233;-57
2022/07/24 02:27:45;;;;;;;7.17;5.83;;;;;;;16.37;68.73;100569.16;1657591;85;21237;-57
2022/07/24 02:30:54;;;;;;;7.00;6.30;;;;;;;16.36;68.76;100569.69;1658491;85;21239;-57
2022/07/24 02:34:00;;;;;;;6.92;5.87;;;;;;;16.37;68.81;100567.27;1660575;85;21220;-56
2022/07/24 02:37:06;;;;;;;6.60;5.97;;;;;;;16.37;68.82;100569.16;1657452;85;21312;-57
2022/07/24 02:40:14;;;;;;;6.42;5.83;;;;;;;16.37;68.84;100565.88;1657995;85;21371;-56
2022/07/24 02:43:21;;;;;;;7.97;6.30;;;;;;;16.39;68.87;100561.52;1677961;84;21228;-55
2022/07/24 02:46:27;;;;;;;6.75;6.10;;;;;;;16.42;68.93;100568.02;1679100;85;21352;-54
2022/07/24 02:49:33;;;;;;;7.10;6.40;;;;;;;16.46;69.05;100567.94;1680176;84;21243;-56
2022/07/24 02:52:40;;;;;;;6.70;6.00;;;;;;;16.49;69.17;100549.55;1693870;83;21232;-54
2022/07/24 02:55:47;;;;;;;8.63;6.25;;;;;;;16.53;69.22;100551.38;1693802;84;21212;-54
2022/07/24 02:58:54;;;;;;;9.25;7.33;;;;;;;16.59;69.32;100552.77;1694011;84;21369;-56
2022/07/24 03:02:02;;;;;;;8.55;7.75;;;;;;;16.66;69.43;100560.55;1677755;84;21261;-55
2022/07/24 03:05:09;;;;;;;8.78;7.78;;;;;;;16.73;69.57;100562.77;1687036;84;21350;-56
2022/07/24 03:08:16;;;;;;;8.00;7.15;;;;;;;16.81;69.65;100558.42;1672328;84;21264;-55
2022/07/24 03:11:23;;;;;;;11.83;8.13;;;;;;;16.90;69.73;100560.45;1684582;85;21340;-56
2022/07/24 03:14:29;;;;;;;9.25;8.33;;;;;;;16.97;69.76;100555.77;1684590;85;21275;-56
2022/07/24 03:17:36;;;;;;;10.98;7.78;;;;;;;17.05;69.80;100552.78;1674335;84;21275;-56
2022/07/24 03:20:43;;;;;;;8.85;7.95;;;;;;;17.12;69.82;100544.83;1684554;85;21224;-56
2022/07/24 03:23:50;;;;;;;7.03;6.35;;;;;;;17.22;69.93;100545.22;1684909;85;21193;-56
2022/07/24 03:26:59;;;;;;;8.88;6.80;;;;;;;17.31;69.97;100548.63;1684660;84;21394;-56
2022/07/24 03:30:07;;;;;;;10.93;6.45;;;;;;;17.39;70.00;100543.72;1684234;85;21220;-55
2022/07/24 03:33:18;;;;;;;8.78;6.62;;;;;;;17.47;70.06;100544.88;1684505;85;21588;-55
2022/07/24 03:36:28;;;;;;;10.65;6.50;;;;;;;17.56;70.16;100542.73;1684644;85;21252;-56
2022/07/24 03:39:33;;;;;;;9.10;6.37;;;;;;;17.66;70.23;100538.99;1684678;85;21268;-55
2022/07/24 03:42:41;;;;;;;8.20;6.12;;;;;;;17.76;70.34;100544.38;1675811;84;21201;-55
2022/07/24 03:45:45;;;;;;;10.50;7.55;;;;;;;17.86;70.40;100540.62;1655134;86;21631;-54
2022/07/24 03:49:02;;;;;;;10.45;7.70;;;;;;;17.98;70.48;100546.34;1656761;86;21342;-53
2022/07/24 03:52:09;;;;;;;8.95;7.58;;;;;;;18.09;70.52;100544.78;1656785;86;21233;-54
2022/07/24 03:55:19;;;;;;;12.35;7.70;;;;;;;18.18;70.53;100551.77;1656727;86;21284;-55
2022/07/24 03:58:28;;;;;;;15.60;7.62;;;;;;;18.26;70.55;100556.53;1656735;86;21272;-53
2022/07/24 04:01:36;;;;;;;9.83;7.00;;;;;;;18.35;70.57;100551.03;1656712;86;21212;-56
2022/07/24 04:04:42;;;;;;;10.35;6.83;;;;;;;18.45;70.63;100551.97;1659515;86;21236;-55
2022/07/24 04:07:50;;;;;;;8.33;7.30;;;;;;;18.56;70.70;100555.41;1662028;86;21260;-55
2022/07/24 04:10:59;;;;;;;12.25;7.47;;;;;;;18.66;70.76;100553.02;1661629;86;21259;-56
2022/07/24 04:14:07;;;;;;;8.48;7.22;;;;;;;18.79;70.82;100562.63;1662485;86;21204;-56
2022/07/24 04:17:13;;;;;;;8.85;7.90;;;;;;;18.89;70.88;100562.95;1662504;86;21648;-55
2022/07/24 04:20:19;;;;;;;10.68;7.47;;;;;;;19.00;70.94;100562.23;1662454;86;21224;-55
2022/07/24 04:23:27;;;;;;;9.95;8.55;;;;;;;19.10;70.96;100564.83;1662327;86;21228;-55
2022/07/24 04:26:33;;;;;;;12.30;8.15;;;;;;;19.22;70.99;100568.55;1662375;86;21260;-55
2022/07/24 04:29:42;;;;;;;9.03;8.08;;;;;;;19.32;71.06;100576.40;1662457;86;21216;-56
2022/07/24 04:32:48;;;;;;;11.65;9.10;;;;;;;19.44;71.09;100580.67;1661718;86;21224;-55
2022/07/24 04:35:56;;;;;;;10.05;8.80;;;;;;;19.56;71.16;100584.38;1662433;86;21411;-55
2022/07/24 04:39:02;;;;;;;10.25;9.25;;;;;;;19.66;71.25;100584.72;1662202;85;21228;-56
2022/07/24 04:42:11;;;;;;;11.10;9.65;;;;;;;19.81;71.32;100587.95;1662393;86;21295;-56
2022/07/24 04:45:19;;;;;;;10.95;9.43;;;;;;;19.94;71.41;100582.25;1662204;86;21358;-55
2022/07/24 04:48:27;;;;;;;10.20;9.15;;;;;;;20.07;71.49;100576.55;1661836;86;21229;-55
2022/07/24 04:51:33;;;;;;;12.78;9.68;;;;;;;20.20;71.53;100575.03;1632935;88;21747;-55
2022/07/24 04:54:41;;;;;;;14.18;9.63;;;;;;;20.34;71.59;100573.20;1620069;86;21259;-56
2022/07/24 04:57:47;;;;;;;10.93;9.80;;;;;;;20.47;71.66;100564.68;1661865;86;21253;-55
2022/07/24 05:00:58;;;;;;;10.82;9.73;;;;;;;20.59;71.71;100563.34;1661108;85;21299;-55
2022/07/24 05:04:07;;;;;;;14.50;8.88;;;;;;;20.71;71.73;100558.13;1664092;86;21264;-56
2022/07/24 05:07:12;;;;;;;8.80;7.08;;;;;;;20.87;71.78;100563.55;1628707;88;21244;-55
2022/07/24 05:10:19;;;;;;;9.05;6.85;;;;;;;21.02;71.92;100555.64;1629013;84;21212;-55
2022/07/24 05:13:27;;;;;;;9.85;7.28;;;;;;;21.18;72.00;100554.08;1642675;86;21356;-56
2022/07/24 05:16:39;;;;;;;7.67;6.87;;;;;;;21.33;71.98;100554.44;1602703;88;21424;-56
2022/07/24 05:19:49;;;;;;;7.85;6.58;;;;;;;21.50;72.04;100562.40;1613619;86;21780;-56
2022/07/24 05:22:55;;;;;;;7.95;7.15;;;;;;;21.63;72.08;100554.63;1628227;88;21248;-56
2022/07/24 05:26:02;;;;;;;9.05;7.58;;;;;;;21.76;72.05;100551.63;1628757;86;21232;-56
2022/07/24 05:29:13;;;;;;;7.90;6.47;;;;;;;21.88;72.02;100544.64;1629124;87;21188;-55
2022/07/24 05:32:21;;;;;;;6.78;5.75;;;;;;;22.01;72.05;100541.56;1628659;85;21267;-57
2022/07/24 05:35:27;;;;;;;7.10;5.83;;;;;;;22.12;72.00;100542.07;1629152;87;21287;-55
2022/07/24 05:38:34;;;;;;;6.70;5.75;;;;;;;22.23;72.00;100542.04;1628898;87;21203;-55
2022/07/24 05:41:44;;;;;;;6.03;5.50;;;;;;;22.36;71.97;100540.08;1629852;86;21286;-54
2022/07/24 05:44:55;;;;;;;7.45;6.62;;;;;;;22.47;71.95;100533.59;1631550;86;21188;-56
2022/07/24 05:48:05;;;;;;;9.70;6.03;;;;;;;22.59;71.99;100532.47;1639356;87;21260;-55
2022/07/24 05:51:11;;;;;;;9.10;6.40;;;;;;;22.71;72.00;100536.58;1634054;87;21227;-55
2022/07/24 05:54:17;;;;;;;10.28;6.53;;;;;;;22.82;71.97;100535.66;1631234;86;21300;-56
2022/07/24 05:57:26;;;;;;;7.85;6.90;;;;;;;22.91;71.97;100536.97;1629526;87;21763;-55
2022/07/24 06:00:40;;;;;;;6.17;5.58;;;;;;;23.00;71.89;100529.86;1629008;88;21200;-55
2022/07/24 06:03:48;;;;;;;6.47;5.47;;;;;;;23.09;71.84;100519.95;1628895;88;21219;-54
2022/07/24 06:06:56;;;;;;;7.75;6.95;;;;;;;23.18;71.81;100521.23;1651422;84;21204;-56
2022/07/24 06:10:05;;;;;;;9.80;5.53;;;;;;;23.25;71.73;100521.89;1663102;86;21255;-55
2022/07/24 06:13:14;;;;;;;8.00;6.05;;;;;;;23.35;71.63;100517.91;1663147;85;21220;-57
2022/07/24 06:16:22;;;;;;;6.28;5.67;;;;;;;23.45;71.62;100520.86;1661970;85;21208;-55
2022/07/24 06:19:36;;;;;;;8.40;5.45;;;;;;;23.53;71.53;100516.23;1662804;86;21280;-56
2022/07/24 06:22:44;;;;;;;6.17;4.47;;;;;;;23.66;71.60;100509.42;1663200;86;21240;-56
2022/07/24 06:25:55;;;;;;;6.85;4.33;;;;;;;23.74;71.57;100509.81;1642425;84;21232;-55
2022/07/24 06:29:05;;;;;;;5.37;4.03;;;;;;;23.85;71.54;100505.22;1635433;88;21301;-56
2022/07/24 06:32:07;;;;;;;5.42;3.90;;;;;;;23.96;71.45;100497.25;1635961;87;21265;-55
2022/07/24 06:35:17;;;;;;;6.45;3.52;;;;;;;24.06;71.47;100491.80;1636249;88;21277;-55
2022/07/24 06:38:28;;;;;;;6.67;3.85;;;;;;;24.16;71.43;100494.19;1635466;87;21328;-56
2022/07/24 06:41:37;;;;;;;6.33;3.30;;;;;;;24.31;71.44;100496.32;1635920;87;21277;-56
2022/07/24 06:44:51;;;;;;;4.45;3.60;;;;;;;24.40;71.29;100498.94;1635753;87;21310;-56
2022/07/24 06:48:00;;;;;;;4.42;3.52;;;;;;;24.46;71.06;100501.52;1635723;88;21273;-56
2022/07/24 06:51:09;;;;;;;4.92;3.30;;;;;;;24.58;71.04;100495.74;1631100;87;21793;-57
2022/07/24 06:54:16;;;;;;;6.30;3.00;;;;;;;24.65;70.90;100495.84;1634961;87;21755;-55
2022/07/24 06:57:25;;;;;;;4.65;2.75;;;;;;;24.72;70.74;100494.27;1607319;87;21298;-56
2022/07/24 07:00:34;;;;;;;3.65;3.00;;;;;;;24.80;70.62;100495.19;1648382;84;21759;-57
2022/07/24 07:03:42;;;;;;;4.35;2.75;;;;;;;24.86;70.47;100496.92;1647653;87;21254;-56
2022/07/24 07:06:55;;;;;;;3.50;3.05;;;;;;;24.94;70.35;100492.23;1649146;85;21293;-57
2022/07/24 07:10:05;;;;;;;3.65;2.52;;;;;;;25.07;70.37;100482.52;1645771;85;21284;-57
2022/07/24 07:13:13;;;;;;;4.08;2.27;;;;;;;25.16;70.28;100483.16;1663335;86;21252;-56
2022/07/24 07:16:24;;;;;;;4.17;2.98;;;;;;;25.28;70.15;100484.34;1636350;86;21249;-56
2022/07/24 07:19:32;;;;;;;4.47;3.02;;;;;;;25.36;70.08;100482.47;1659142;86;21229;-57
2022/07/24 07:22:44;;;;;;;4.05;3.35;;;;;;;25.47;70.03;100478.62;1659768;86;21251;-57
2022/07/24 07:25:55;;;;;;;5.85;3.45;;;;;;;25.60;69.93;100485.16;1650732;86;21346;-56
2022/07/24 07:29:04;;;;;;;4.60;3.85;;;;;;;25.72;69.86;100482.42;1663437;86;21717;-57
2022/07/24 07:32:13;;;;;;;7.08;3.75;;;;;;;25.86;69.75;100479.98;1656955;86;21231;-58
2022/07/24 07:35:23;;;;;;;4.40;4.00;;;;;;;25.97;69.56;100484.52;1656202;86;21312;-56
2022/07/24 07:38:31;;;;;;;5.28;4.10;;;;;;;26.05;69.38;100482.62;1662080;86;22136;-57
2022/07/24 07:41:40;;;;;;;7.28;4.20;;;;;;;26.10;69.21;100481.25;1649718;86;21244;-58
2022/07/24 07:44:48;;;;;;;6.28;4.62;;;;;;;26.07;68.95;100478.96;1662348;86;21283;-57
2022/07/24 07:47:54;;;;;;;6.42;4.12;;;;;;;26.02;68.83;100479.79;1637898;86;21260;-56
2022/07/24 07:51:01;;;;;;;4.70;3.50;;;;;;;26.10;68.71;100477.03;1657338;86;21248;-56
2022/07/24 07:54:07;;;;;;;5.72;3.85;;;;;;;26.18;68.64;100477.87;1647720;86;21659;-57
2022/07/24 07:57:18;;;;;;;5.03;4.00;;;;;;;26.24;68.46;100481.83;1632850;87;21276;-57
2022/07/24 08:00:26;;;;;;;4.87;3.40;;;;;;;26.25;68.32;100482.69;1628907;88;21228;-57
2022/07/24 08:03:33;;;;;;;4.60;3.17;;;;;;;26.32;68.17;100481.88;1635166;86;21304;-57
2022/07/24 08:06:41;;;;;;;3.70;3.33;;;;;;;26.31;67.95;100495.61;1655742;85;21283;-57
2022/07/24 08:09:49;;;;;;;7.10;2.90;;;;;;;26.24;67.80;100483.23;1657059;84;21778;-56
2022/07/24 08:12:57;;;;;;;4.33;3.52;;;;;;;26.17;67.55;100481.81;1655665;86;21220;-55
2022/07/24 08:16:04;;;;;;;3.72;2.90;;;;;;;26.14;67.48;100483.22;1662323;86;21216;-58
2022/07/24 08:19:13;;;;;;;9.63;4.22;;;;;;;26.26;67.57;100484.36;1663092;86;21260;-57
2022/07/24 08:22:25;;;;;;;8.20;3.20;;;;;;;26.41;67.52;100467.57;1655979;86;21291;-56
2022/07/24 08:25:35;;;;;;;4.60;3.20;;;;;;;26.55;67.39;100477.14;1662489;86;21196;-57
2022/07/24 08:28:36;;;;;;;5.75;3.10;;;;;;;26.63;67.22;100478.00;1663104;86;21775;-57
2022/07/24 08:31:36;;;;;;;5.30;3.50;;;;;;;26.71;67.00;100469.05;1656451;86;21357;-57
2022/07/24 08:34:43;;;;;;;4.33;3.10;;;;;;;26.70;66.79;100468.78;1662579;86;21239;-58
2022/07/24 08:37:53;;;;;;;3.77;3.17;;;;;;;26.79;66.73;100468.50;1656367;86;21244;-58
2022/07/24 08:41:04;;;;;;;3.42;2.75;;;;;;;26.90;66.53;100476.36;1662608;86;21757;-56
2022/07/24 08:44:12;;;;;;;6.20;3.40;;;;;;;26.99;66.41;100467.67;1656670;86;21368;-57
2022/07/24 08:47:19;;;;;;;5.28;3.30;;;;;;;27.10;66.30;100466.55;1662998;86;21299;-55
2022/07/24 08:50:28;;;;;;;6.30;3.30;;;;;;;27.20;66.14;100470.18;1656804;86;21260;-55
2022/07/24 08:53:38;;;;;;;4.25;3.30;;;;;;;27.26;65.92;100462.57;1656840;85;21343;-55
2022/07/24 08:56:51;;;;;;;3.60;3.17;;;;;;;27.24;65.68;100464.26;1656554;86;21265;-57
2022/07/24 08:59:59;;;;;;;6.45;3.40;;;;;;;27.28;65.44;100458.95;1663109;86;21325;-57
2022/07/24 09:03:12;;;;;;;4.42;3.20;;;;;;;27.32;65.33;100465.13;1647569;86;21761;-57
2022/07/24 09:06:23;;;;;;;4.00;3.20;;;;;;;27.30;65.13;100457.56;1662527;86;21231;-55
2022/07/24 09:09:30;;;;;;;5.83;3.22;;;;;;;27.19;64.92;100457.27;1655715;86;21264;-57
2022/07/24 09:12:50;;;;;;;5.92;3.10;;;;;;;27.16;64.78;100456.98;1640480;86;21248;-57
2022/07/24 09:15:59;;;;;;;3.52;2.67;;;;;;;27.30;64.74;100456.70;1656358;86;21220;-56
2022/07/24 09:19:16;;;;;;;4.67;3.12;;;;;;;27.38;64.42;100454.73;1656261;86;21233;-58
2022/07/24 09:22:48;;;;;;;3.45;3.08;;;;;;;27.29;64.17;100463.47;1655866;86;21213;-58
2022/07/24 09:26:00;;;;;;;7.60;2.80;;;;;;;27.19;64.00;100462.89;1654882;86;21208;-57
2022/07/24 09:29:06;;;;;;;5.95;2.85;;;;;;;27.16;63.84;100465.41;1656118;86;21224;-54
2022/07/24 09:32:15;;;;;;;3.30;2.77;;;;;;;27.25;63.72;100457.53;1656057;85;21289;-57
2022/07/24 09:35:31;;;;;;;4.37;3.08;;;;;;;27.30;63.45;100459.52;1656232;86;21273;-57
2022/07/24 09:38:39;;;;;;;4.15;2.40;;;;;;;27.30;63.29;100456.16;1641892;86;21272;-54
2022/07/24 09:41:50;;;;;;;3.60;2.50;;;;;;;27.42;63.13;100455.83;1657042;85;21232;-56
2022/07/24 09:45:04;;;;;;;4.20;1.90;;;;;;;27.58;62.94;100447.63;1640266;86;21271;-55
2022/07/24 09:48:09;;;;;;;5.12;2.37;;;;;;;27.73;62.67;100441.39;1656549;85;21256;-56
2022/07/24 09:51:24;;;;;;;3.80;2.20;;;;;;;27.89;62.31;100443.64;1623707;85;21616;-56
2022/07/24 09:54:45;;;;;;;2.85;2.35;;;;;;;28.05;62.14;100440.18;1656419;86;21726;-56
2022/07/24 09:57:54;;;;;;;2.40;2.20;;;;;;;28.18;61.91;100444.59;1656070;85;21240;-56
2022/07/24 10:01:05;;;;;;;7.17;2.80;;;;;;;28.28;61.56;100428.21;1639851;86;21753;-57
2022/07/24 10:04:17;;;;;;;3.05;2.60;;;;;;;28.36;61.42;100434.08;1658560;84;21808;-57
2022/07/24 10:07:26;;;;;;;2.92;2.60;;;;;;;28.33;61.00;100428.19;1671113;84;21259;-57
2022/07/24 10:10:33;;;;;;;3.17;2.58;;;;;;;28.23;60.86;100428.23;1650197;85;21239;-57
2022/07/24 10:13:41;;;;;;;4.80;4.33;;;;;;;28.34;60.74;100425.08;1656164;86;21244;-57
2022/07/24 10:16:50;;;;;;;5.90;3.08;;;;;;;28.48;60.60;100426.14;1639569;86;21248;-55
2022/07/24 10:20:00;;;;;;;7.20;2.85;;;;;;;28.51;60.34;100426.14;1655838;86;21236;-55
2022/07/24 10:23:12;;;;;;;3.55;3.20;;;;;;;28.38;59.98;100422.52;1655661;84;21236;-53
2022/07/24 10:26:43;;;;;;;3.77;2.60;;;;;;;28.25;59.78;100418.38;1656448;84;21303;-55
2022/07/24 10:29:49;;;;;;;2.17;1.98;;;;;;;28.25;59.72;100416.13;1647130;86;21228;-55
2022/07/24 10:32:56;;;;;;;2.98;1.95;;;;;;;28.38;59.58;100416.89;1657615;86;21394;-55
2022/07/24 10:36:03;;;;;;;2.37;2.17;;;;;;;28.52;59.29;100408.94;1654869;84;21208;-55
2022/07/24 10:39:13;;;;;;;5.87;4.83;;;;;;;28.63;59.07;100408.28;1655771;86;21244;-55
2022/07/24 10:42:19;;;;;;;3.10;2.30;;;;;;;28.80;58.94;100406.73;1654556;86;21821;-56
2022/07/24 10:45:30;;;;;;;3.22;2.10;;;;;;;28.93;58.68;100405.20;1653910;87;21290;-55
2022/07/24 10:48:46;;;;;;;4.22;2.87;;;;;;;29.06;58.44;100402.59;1654221;86;21290;-55
2022/07/24 10:52:07;;;;;;;4.33;2.40;;;;;;;29.18;58.20;100402.17;1648122;86;21325;-55
2022/07/24 10:55:39;;;;;;;3.02;2.55;;;;;;;29.21;57.79;100402.98;1645745;87;21298;-55
2022/07/24 10:59:05;;;;;;;;;;;;;;;28.94;57.41;100400.68;1647845;87;21461;-55
2022/07/24 11:02:39;;;;;;;4.00;2.40;;;;;;;28.77;57.28;100403.09;1645984;87;20232;-56
2022/07/24 11:05:46;;;;;;;3.05;2.20;;;;;;;28.82;57.25;100393.19;1591639;90;21300;-56
2022/07/24 11:08:59;;;;;;;3.65;2.60;;;;;;;28.92;57.08;100395.08;1648958;86;21248;-56
2022/07/24 11:12:11;;;;;;;2.58;2.20;;;;;;;28.94;56.82;100394.19;1655977;84;21236;-54
2022/07/24 11:19:00;;;;;;;4.00;2.25;;;;;;;28.92;56.51;100391.67;1656510;84;21419;-55
2022/07/24 11:22:13;;;;;;;4.30;2.17;;;;;;;29.02;56.38;100387.91;1629672;87;21344;-55
2022/07/24 11:25:24;;;;;;;4.03;2.30;;;;;;;29.02;56.17;100379.45;1612359;87;21227;-54
2022/07/24 11:28:30;;;;;;;4.30;2.15;;;;;;;29.20;56.09;100381.56;1629831;87;21313;-54
2022/07/24 11:31:38;;;;;;;3.10;2.08;;;;;;;29.37;55.81;100373.47;1613797;86;21257;-55
2022/07/24 11:34:45;;;;;;;3.90;1.87;;;;;;;29.46;55.47;100375.08;1654731;86;21232;-55
2022/07/24 11:37:55;;;;;;;3.08;1.90;;;;;;;29.74;55.23;100375.59;1627329;87;21244;-55
2022/07/24 11:41:14;;;;;;;2.62;2.20;;;;;;;29.74;55.23;100375.59;1617300;87;21773;-54
2022/07/24 11:44:33;;;;;;;3.15;1.90;;;;;;;29.84;53.79;100374.06;1602324;87;21263;-56
2022/07/24 11:47:42;;;;;;;4.17;1.92;;;;;;;29.84;53.79;100374.06;1628633;87;21307;-54
2022/07/24 11:50:52;;;;;;;2.95;1.87;;;;;;;29.81;54.05;100363.38;1628367;88;21232;-55
2022/07/24 11:54:04;;;;;;;5.47;1.82;;;;;;;29.84;53.80;100367.85;1628173;88;21300;-54
2022/07/24 11:57:12;;;;;;;2.00;1.80;;;;;;;29.90;53.66;100353.92;1625901;87;21259;-55
2022/07/24 12:00:23;;;;;;;2.40;1.95;;;;;;;29.99;53.51;100352.09;1562551;91;21304;-56
2022/07/24 12:03:32;;;;;;;4.47;1.60;;;;;;;30.12;53.34;100348.52;1603187;89;21241;-55
2022/07/24 12:06:42;;;;;;;3.90;1.72;;;;;;;30.23;53.13;100340.19;1634462;87;21255;-55
2022/07/24 12:10:05;;;;;;;2.27;1.47;;;;;;;30.28;52.64;100347.17;1633436;88;21247;-53
2022/07/24 12:13:16;;;;;;;2.58;1.80;;;;;;;30.29;52.43;100339.52;1628880;85;21752;-56
2022/07/24 12:16:33;;;;;;;3.50;1.85;;;;;;;30.30;52.17;100339.21;1632071;88;21259;-55
2022/07/24 12:19:45;;;;;;;2.25;1.70;;;;;;;30.32;52.06;100341.73;1622123;88;21745;-57
2022/07/24 12:22:52;;;;;;;2.42;2.00;;;;;;;30.33;51.76;100337.21;1612636;87;21296;-56
2022/07/24 12:26:03;;;;;;;3.15;2.00;;;;;;;30.30;51.60;100329.92;1625411;88;21224;-56
2022/07/24 12:29:19;;;;;;;3.17;2.10;;;;;;;30.29;51.42;100329.06;1628298;88;21243;-55
2022/07/24 12:32:29;;;;;;;3.45;2.02;;;;;;;30.31;51.18;100328.20;1628521;88;21296;-57
2022/07/24 12:35:36;;;;;;;3.00;2.22;;;;;;;30.30;50.96;100327.91;1617749;87;21833;-56
2022/07/24 12:38:49;;;;;;;3.47;2.45;;;;;;;30.24;50.71;100323.49;1602720;89;21279;-56
2022/07/24 12:41:58;;;;;;;6.30;2.92;;;;;;;30.16;50.48;100312.03;1655937;86;21245;-55
2022/07/24 12:45:16;;;;;;;3.25;1.60;;;;;;;30.13;50.29;100319.12;1649657;86;21809;-56
2022/07/24 12:48:28;;;;;;;3.10;1.85;;;;;;;30.10;50.15;100313.23;1655108;86;21252;-55
2022/07/24 12:51:54;;;;;;;4.37;2.08;;;;;;;30.09;50.00;100320.89;1629240;87;21240;-55
2022/07/24 12:55:01;;;;;;;2.67;2.05;;;;;;;30.08;49.84;100315.55;1629876;87;21332;-55
2022/07/24 12:58:11;;;;;;;4.28;1.90;;;;;;;30.04;49.61;100316.72;1630170;88;21332;-56
2022/07/24 13:01:17;;;;;;;4.53;2.17;;;;;;;30.01;49.56;100308.87;1630820;87;21235;-54
2022/07/24 13:04:30;;;;;;;3.58;1.60;;;;;;;30.01;49.23;100310.28;1630938;87;21239;-56
2022/07/24 13:07:35;;;;;;;3.12;2.10;;;;;;;30.08;49.14;100301.43;1633274;87;21279;-55
2022/07/24 13:10:46;;;;;;;4.12;2.20;;;;;;;30.22;49.01;100296.11;1647728;86;21430;-56
2022/07/24 13:13:55;;;;;;;5.53;2.62;;;;;;;30.32;48.79;100298.78;1655056;86;21272;-56
2022/07/24 13:17:02;;;;;;;2.45;2.25;;;;;;;30.39;48.57;100297.83;1632971;86;21231;-56
2022/07/24 13:20:10;;;;;;;5.55;2.30;;;;;;;30.34;48.48;100301.30;1655922;86;21241;-56
2022/07/24 13:23:17;;;;;;;5.70;2.20;;;;;;;30.30;48.45;100295.42;1656708;86;21252;-56
2022/07/24 13:26:25;;;;;;;2.30;2.10;;;;;;;30.31;48.38;100288.64;1656601;86;21312;-56
2022/07/24 13:29:37;;;;;;;3.98;1.95;;;;;;;30.30;48.25;100291.18;1656233;86;21209;-57
2022/07/24 13:32:43;;;;;;;3.05;2.10;;;;;;;30.26;48.14;100285.05;1656283;86;21335;-56
2022/07/24 13:35:53;;;;;;;3.40;2.30;;;;;;;30.27;48.11;100287.56;1639881;86;21860;-56
2022/07/24 13:38:59;;;;;;;3.72;1.98;;;;;;;30.27;47.96;100287.56;1657815;86;21261;-56
2022/07/24 13:42:09;;;;;;;3.40;2.02;;;;;;;30.29;47.81;100278.22;1656504;86;21280;-56
2022/07/24 13:45:17;;;;;;;2.55;1.80;;;;;;;30.35;47.66;100284.04;1656889;86;21213;-58
2022/07/24 13:48:24;;;;;;;4.37;2.10;;;;;;;30.38;47.60;100283.42;1656689;86;21288;-56
2022/07/24 13:51:33;;;;;;;2.72;2.02;;;;;;;30.41;47.50;100277.74;1655666;86;21237;-57
2022/07/24 13:54:41;;;;;;;5.95;2.40;;;;;;;30.39;47.37;100268.16;1657079;86;21264;-56
2022/07/24 13:57:50;;;;;;;2.85;2.10;;;;;;;30.41;47.19;100261.61;1656400;86;21268;-55
2022/07/24 14:00:57;;;;;;;3.75;2.00;;;;;;;30.40;47.12;100267.57;1656638;86;21244;-56
2022/07/24 14:04:08;;;;;;;3.30;2.20;;;;;;;30.34;47.10;100259.77;1639547;86;21857;-56
2022/07/24 14:07:17;;;;;;;2.52;2.10;;;;;;;30.33;47.04;100261.49;1645579;86;21432;-56
2022/07/24 14:10:27;;;;;;;4.72;2.37;;;;;;;30.30;46.92;100257.28;1661820;86;21232;-56
2022/07/24 14:13:34;;;;;;;2.87;2.30;;;;;;;30.27;46.80;100258.50;1659389;86;21248;-57
2022/07/24 14:16:43;;;;;;;3.80;3.27;;;;;;;30.20;46.70;100261.68;1629524;86;21339;-57
2022/07/24 14:19:50;;;;;;;4.55;2.45;;;;;;;30.14;46.69;100257.83;1629115;86;21236;-57
2022/07/24 14:22:58;;;;;;;3.08;2.30;;;;;;;30.02;46.34;100258.30;1647059;86;21263;-56
2022/07/24 14:26:05;;;;;;;2.87;2.20;;;;;;;29.90;46.56;100258.50;1628409;86;21268;-57
2022/07/24 14:29:13;;;;;;;2.95;2.08;;;;;;;29.75;46.42;100251.09;1627985;88;21220;-57
2022/07/24 14:32:20;;;;;;;5.10;3.20;;;;;;;29.63;46.39;100254.07;1628862;86;21232;-56
2022/07/24 14:35:27;;;;;;;7.92;3.72;;;;;;;29.59;46.44;100251.02;1629723;86;22055;-57
2022/07/24 14:38:33;;;;;;;3.77;2.62;;;;;;;29.63;46.30;100247.87;1628928;86;21737;-57
2022/07/24 14:41:39;;;;;;;3.72;2.42;;;;;;;29.70;46.41;100241.28;1627868;86;21245;-57